sensor_id;sensor_type;location;lat;lon;timestamp;P1;durP1;ratioP1;P2;durP2;ratioP2
51515;SDS011;37603;55.614;37.326;2023-04-25T00:02:08;14.5;;;7.3;;
51515;SDS011;37603;55.614;37.326;2023-04-25T00:08:07;10.6;;;7.7;;
51515;SDS011;37603;55.614;37.326;2023-04-25T00:14:06;12.3;;;6.7;;
51515;SDS011;37603;55.614;37.326;2023-04-25T00:20:06;14.8;;;7.0;;
51515;SDS011;37603;55.614;37.326;2023-04-25T00:26:05;17.5;;;6.9;;
51515;SDS011;37603;55.614;37.326;2023-04-25T00:32:04;13.4;;;7.1;;
51515;SDS011;37603;55.614;37.326;2023-04-25T00:38:03;10.8;;;7.0;;
51515;SDS011;37603;55.614;37.326;2023-04-25T00:44:03;10.5;;;6.9;;
51515;SDS011;37603;55.614;37.326;2023-04-25T00:50:02;13.0;;;6.9;;
51515;SDS011;37603;55.614;37.326;2023-04-25T00:56:02;11.6;;;7.2;;
51515;SDS011;37603;55.614;37.326;2023-04-25T01:02:00;11.7;;;8.2;;
51515;SDS011;37603;55.614;37.326;2023-04-25T01:07:59;13.1;;;7.9;;
51515;SDS011;37603;55.614;37.326;2023-04-25T01:13:58;15.1;;;7.5;;
51515;SDS011;37603;55.614;37.326;2023-04-25T01:19:57;13.9;;;7.6;;
51515;SDS011;37603;55.614;37.326;2023-04-25T01:25:57;14.3;;;7.6;;
51515;SDS011;37603;55.614;37.326;2023-04-25T01:31:56;13.8;;;7.9;;
51515;SDS011;37603;55.614;37.326;2023-04-25T01:37:55;13.2;;;7.3;;
51515;SDS011;37603;55.614;37.326;2023-04-25T01:43:54;12.6;;;6.8;;
51515;SDS011;37603;55.614;37.326;2023-04-25T01:49:53;13.9;;;6.9;;
51515;SDS011;37603;55.614;37.326;2023-04-25T01:55:52;11.5;;;6.8;;
51515;SDS011;37603;55.614;37.326;2023-04-25T02:01:51;12.8;;;7.0;;
51515;SDS011;37603;55.614;37.326;2023-04-25T02:07:51;13.8;;;7.2;;
51515;SDS011;37603;55.614;37.326;2023-04-25T02:13:50;14.9;;;7.3;;
51515;SDS011;37603;55.614;37.326;2023-04-25T02:19:49;13.1;;;7.3;;
51515;SDS011;37603;55.614;37.326;2023-04-25T02:25:48;11.4;;;7.9;;
51515;SDS011;37603;55.614;37.326;2023-04-25T02:31:47;13.2;;;7.6;;
51515;SDS011;37603;55.614;37.326;2023-04-25T02:37:46;12.6;;;7.9;;
51515;SDS011;37603;55.614;37.326;2023-04-25T02:43:46;14.2;;;7.3;;
51515;SDS011;37603;55.614;37.326;2023-04-25T02:49:45;14.4;;;7.2;;
51515;SDS011;37603;55.614;37.326;2023-04-25T02:55:44;13.2;;;6.8;;
51515;SDS011;37603;55.614;37.326;2023-04-25T03:01:43;12.2;;;7.0;;
51515;SDS011;37603;55.614;37.326;2023-04-25T03:07:42;11.6;;;7.7;;
51515;SDS011;37603;55.614;37.326;2023-04-25T03:13:42;11.5;;;7.1;;
51515;SDS011;37603;55.614;37.326;2023-04-25T03:19:41;10.8;;;7.5;;
51515;SDS011;37603;55.614;37.326;2023-04-25T03:25:40;11.5;;;7.8;;
51515;SDS011;37603;55.614;37.326;2023-04-25T03:31:39;13.2;;;7.3;;
51515;SDS011;37603;55.614;37.326;2023-04-25T03:37:39;15.5;;;7.4;;
51515;SDS011;37603;55.614;37.326;2023-04-25T03:43:38;13.9;;;7.8;;
51515;SDS011;37603;55.614;37.326;2023-04-25T03:49:37;12.9;;;7.8;;
51515;SDS011;37603;55.614;37.326;2023-04-25T03:55:36;13.9;;;7.8;;
51515;SDS011;37603;55.614;37.326;2023-04-25T04:01:36;14.9;;;7.7;;
51515;SDS011;37603;55.614;37.326;2023-04-25T04:07:35;12.0;;;7.5;;
51515;SDS011;37603;55.614;37.326;2023-04-25T04:13:34;13.6;;;7.6;;
51515;SDS011;37603;55.614;37.326;2023-04-25T04:19:34;13.7;;;7.7;;
51515;SDS011;37603;55.614;37.326;2023-04-25T04:25:33;16.8;;;7.8;;
51515;SDS011;37603;55.614;37.326;2023-04-25T04:31:32;13.2;;;7.7;;
51515;SDS011;37603;55.614;37.326;2023-04-25T04:37:32;11.7;;;7.6;;
51515;SDS011;37603;55.614;37.326;2023-04-25T04:43:31;11.9;;;7.2;;
51515;SDS011;37603;55.614;37.326;2023-04-25T04:49:31;13.6;;;7.4;;
51515;SDS011;37603;55.614;37.326;2023-04-25T04:55:30;9.6;;;7.0;;
51515;SDS011;37603;55.614;37.326;2023-04-25T05:01:29;12.3;;;7.1;;
51515;SDS011;37603;55.614;37.326;2023-04-25T05:13:28;13.8;;;6.7;;
51515;SDS011;37603;55.614;37.326;2023-04-25T05:19:27;10.5;;;5.9;;
51515;SDS011;37603;55.614;37.326;2023-04-25T05:25:27;9.1;;;6.1;;
51515;SDS011;37603;55.614;37.326;2023-04-25T05:31:26;12.4;;;5.8;;
51515;SDS011;37603;55.614;37.326;2023-04-25T05:37:26;12.0;;;5.6;;
51515;SDS011;37603;55.614;37.326;2023-04-25T05:43:25;10.7;;;5.5;;
51515;SDS011;37603;55.614;37.326;2023-04-25T05:49:25;12.7;;;5.4;;
51515;SDS011;37603;55.614;37.326;2023-04-25T05:55:24;8.7;;;5.0;;
51515;SDS011;37603;55.614;37.326;2023-04-25T06:07:24;11.8;;;4.7;;
51515;SDS011;37603;55.614;37.326;2023-04-25T06:13:23;9.9;;;4.5;;
51515;SDS011;37603;55.614;37.326;2023-04-25T06:19:23;11.0;;;4.5;;
51515;SDS011;37603;55.614;37.326;2023-04-25T06:25:23;6.6;;;3.8;;
51515;SDS011;37603;55.614;37.326;2023-04-25T06:31:22;9.6;;;4.5;;
51515;SDS011;37603;55.614;37.326;2023-04-25T06:37:22;9.4;;;4.6;;
51515;SDS011;37603;55.614;37.326;2023-04-25T06:43:22;10.2;;;4.7;;
51515;SDS011;37603;55.614;37.326;2023-04-25T06:49:22;9.4;;;4.4;;
51515;SDS011;37603;55.614;37.326;2023-04-25T06:55:22;10.5;;;4.1;;
51515;SDS011;37603;55.614;37.326;2023-04-25T07:01:22;9.0;;;3.9;;
51515;SDS011;37603;55.614;37.326;2023-04-25T07:07:21;10.7;;;4.1;;
51515;SDS011;37603;55.614;37.326;2023-04-25T07:13:21;11.3;;;4.4;;
51515;SDS011;37603;55.614;37.326;2023-04-25T07:19:21;7.1;;;4.1;;
51515;SDS011;37603;55.614;37.326;2023-04-25T07:25:21;10.2;;;4.0;;
51515;SDS011;37603;55.614;37.326;2023-04-25T07:31:21;8.5;;;4.3;;
51515;SDS011;37603;55.614;37.326;2023-04-25T07:37:21;9.3;;;4.2;;
51515;SDS011;37603;55.614;37.326;2023-04-25T07:43:21;6.2;;;3.4;;
51515;SDS011;37603;55.614;37.326;2023-04-25T07:55:21;9.3;;;3.8;;
51515;SDS011;37603;55.614;37.326;2023-04-25T08:01:21;8.2;;;3.6;;
51515;SDS011;37603;55.614;37.326;2023-04-25T08:07:21;5.6;;;3.3;;
51515;SDS011;37603;55.614;37.326;2023-04-25T08:13:21;9.8;;;4.1;;
51515;SDS011;37603;55.614;37.326;2023-04-25T08:19:21;8.4;;;3.9;;
51515;SDS011;37603;55.614;37.326;2023-04-25T08:25:21;9.9;;;4.1;;
51515;SDS011;37603;55.614;37.326;2023-04-25T08:31:21;10.3;;;4.2;;
51515;SDS011;37603;55.614;37.326;2023-04-25T08:37:20;8.5;;;3.7;;
51515;SDS011;37603;55.614;37.326;2023-04-25T08:43:20;7.5;;;3.4;;
51515;SDS011;37603;55.614;37.326;2023-04-25T08:55:21;7.6;;;3.4;;
51515;SDS011;37603;55.614;37.326;2023-04-25T09:01:20;5.3;;;3.3;;
51515;SDS011;37603;55.614;37.326;2023-04-25T09:07:20;6.3;;;3.2;;
51515;SDS011;37603;55.614;37.326;2023-04-25T09:13:24;8.3;;;3.2;;
51515;SDS011;37603;55.614;37.326;2023-04-25T09:19:20;4.6;;;3.1;;
51515;SDS011;37603;55.614;37.326;2023-04-25T09:25:19;6.2;;;3.1;;
51515;SDS011;37603;55.614;37.326;2023-04-25T09:31:21;5.7;;;3.2;;
51515;SDS011;37603;55.614;37.326;2023-04-25T09:37:19;8.0;;;3.0;;
51515;SDS011;37603;55.614;37.326;2023-04-25T09:43:19;6.4;;;2.8;;
51515;SDS011;37603;55.614;37.326;2023-04-25T09:49:19;8.2;;;3.3;;
51515;SDS011;37603;55.614;37.326;2023-04-25T09:55:18;7.5;;;3.3;;
51515;SDS011;37603;55.614;37.326;2023-04-25T10:01:18;7.4;;;3.3;;
51515;SDS011;37603;55.614;37.326;2023-04-25T10:07:18;5.1;;;3.0;;
51515;SDS011;37603;55.614;37.326;2023-04-25T10:13:18;6.7;;;2.6;;
51515;SDS011;37603;55.614;37.326;2023-04-25T10:19:18;6.0;;;2.8;;
51515;SDS011;37603;55.614;37.326;2023-04-25T10:25:17;5.1;;;2.5;;
51515;SDS011;37603;55.614;37.326;2023-04-25T10:31:17;3.6;;;2.2;;
51515;SDS011;37603;55.614;37.326;2023-04-25T10:37:17;4.3;;;2.2;;
51515;SDS011;37603;55.614;37.326;2023-04-25T10:55:17;3.9;;;2.6;;
51515;SDS011;37603;55.614;37.326;2023-04-25T11:01:19;4.0;;;2.7;;
51515;SDS011;37603;55.614;37.326;2023-04-25T11:07:17;4.3;;;2.2;;
51515;SDS011;37603;55.614;37.326;2023-04-25T11:13:16;5.9;;;2.7;;
51515;SDS011;37603;55.614;37.326;2023-04-25T11:19:16;5.2;;;2.6;;
51515;SDS011;37603;55.614;37.326;2023-04-25T11:25:16;5.1;;;3.0;;
51515;SDS011;37603;55.614;37.326;2023-04-25T11:31:15;3.6;;;2.6;;
51515;SDS011;37603;55.614;37.326;2023-04-25T11:37:15;4.0;;;2.4;;
51515;SDS011;37603;55.614;37.326;2023-04-25T11:43:15;4.2;;;2.3;;
51515;SDS011;37603;55.614;37.326;2023-04-25T11:49:15;5.2;;;2.4;;
51515;SDS011;37603;55.614;37.326;2023-04-25T11:55:15;4.2;;;2.5;;
51515;SDS011;37603;55.614;37.326;2023-04-25T12:01:24;4.1;;;2.2;;
51515;SDS011;37603;55.614;37.326;2023-04-25T12:07:14;5.5;;;2.2;;
51515;SDS011;37603;55.614;37.326;2023-04-25T12:13:18;3.2;;;1.8;;
51515;SDS011;37603;55.614;37.326;2023-04-25T12:19:14;3.8;;;2.1;;
51515;SDS011;37603;55.614;37.326;2023-04-25T12:31:13;5.1;;;2.1;;
51515;SDS011;37603;55.614;37.326;2023-04-25T12:37:13;4.8;;;2.1;;
51515;SDS011;37603;55.614;37.326;2023-04-25T12:43:13;6.0;;;2.3;;
51515;SDS011;37603;55.614;37.326;2023-04-25T12:49:13;6.5;;;2.4;;
51515;SDS011;37603;55.614;37.326;2023-04-25T12:55:12;5.0;;;2.4;;
51515;SDS011;37603;55.614;37.326;2023-04-25T13:01:12;5.5;;;2.4;;
51515;SDS011;37603;55.614;37.326;2023-04-25T13:07:12;3.7;;;2.1;;
51515;SDS011;37603;55.614;37.326;2023-04-25T13:13:12;4.8;;;2.3;;
51515;SDS011;37603;55.614;37.326;2023-04-25T13:19:12;5.8;;;2.1;;
51515;SDS011;37603;55.614;37.326;2023-04-25T13:25:11;6.0;;;2.4;;
51515;SDS011;37603;55.614;37.326;2023-04-25T13:31:11;5.0;;;2.2;;
51515;SDS011;37603;55.614;37.326;2023-04-25T13:37:11;2.8;;;1.8;;
51515;SDS011;37603;55.614;37.326;2023-04-25T13:43:11;6.8;;;2.2;;
51515;SDS011;37603;55.614;37.326;2023-04-25T13:49:10;4.8;;;2.2;;
51515;SDS011;37603;55.614;37.326;2023-04-25T13:55:10;5.2;;;2.1;;
51515;SDS011;37603;55.614;37.326;2023-04-25T14:07:10;4.4;;;2.6;;
51515;SDS011;37603;55.614;37.326;2023-04-25T14:13:10;5.6;;;2.4;;
51515;SDS011;37603;55.614;37.326;2023-04-25T14:19:09;5.0;;;2.6;;
51515;SDS011;37603;55.614;37.326;2023-04-25T14:25:09;5.6;;;2.3;;
51515;SDS011;37603;55.614;37.326;2023-04-25T14:31:09;6.4;;;2.8;;
51515;SDS011;37603;55.614;37.326;2023-04-25T14:37:09;4.9;;;2.8;;
51515;SDS011;37603;55.614;37.326;2023-04-25T14:43:08;5.6;;;2.6;;
51515;SDS011;37603;55.614;37.326;2023-04-25T14:49:08;4.2;;;2.5;;
51515;SDS011;37603;55.614;37.326;2023-04-25T15:01:08;4.3;;;2.4;;
51515;SDS011;37603;55.614;37.326;2023-04-25T15:07:07;5.1;;;2.0;;
51515;SDS011;37603;55.614;37.326;2023-04-25T15:13:07;5.9;;;2.7;;
51515;SDS011;37603;55.614;37.326;2023-04-25T15:19:07;4.3;;;2.4;;
51515;SDS011;37603;55.614;37.326;2023-04-25T15:31:07;5.6;;;2.6;;
51515;SDS011;37603;55.614;37.326;2023-04-25T15:37:06;3.7;;;2.1;;
51515;SDS011;37603;55.614;37.326;2023-04-25T15:43:06;4.2;;;2.3;;
51515;SDS011;37603;55.614;37.326;2023-04-25T15:49:06;4.7;;;2.3;;
51515;SDS011;37603;55.614;37.326;2023-04-25T15:55:06;5.0;;;2.8;;
51515;SDS011;37603;55.614;37.326;2023-04-25T16:01:05;5.9;;;3.0;;
51515;SDS011;37603;55.614;37.326;2023-04-25T16:07:05;6.2;;;2.6;;
51515;SDS011;37603;55.614;37.326;2023-04-25T16:13:05;6.9;;;3.0;;
51515;SDS011;37603;55.614;37.326;2023-04-25T16:19:04;8.1;;;2.9;;
51515;SDS011;37603;55.614;37.326;2023-04-25T16:25:04;13.0;;;3.0;;
51515;SDS011;37603;55.614;37.326;2023-04-25T16:31:04;9.6;;;3.0;;
51515;SDS011;37603;55.614;37.326;2023-04-25T16:37:03;8.4;;;3.1;;
51515;SDS011;37603;55.614;37.326;2023-04-25T16:43:03;7.3;;;3.3;;
51515;SDS011;37603;55.614;37.326;2023-04-25T16:49:03;6.8;;;3.2;;
51515;SDS011;37603;55.614;37.326;2023-04-25T17:01:02;8.5;;;3.7;;
51515;SDS011;37603;55.614;37.326;2023-04-25T17:07:02;9.8;;;4.9;;
51515;SDS011;37603;55.614;37.326;2023-04-25T17:13:01;8.0;;;4.2;;
51515;SDS011;37603;55.614;37.326;2023-04-25T17:19:01;10.0;;;4.3;;
51515;SDS011;37603;55.614;37.326;2023-04-25T17:31:00;10.2;;;4.6;;
51515;SDS011;37603;55.614;37.326;2023-04-25T17:36:59;10.6;;;5.7;;
51515;SDS011;37603;55.614;37.326;2023-04-25T17:42:59;19.1;;;5.5;;
51515;SDS011;37603;55.614;37.326;2023-04-25T17:48:59;9.3;;;4.1;;
51515;SDS011;37603;55.614;37.326;2023-04-25T17:54:58;8.2;;;3.7;;
51515;SDS011;37603;55.614;37.326;2023-04-25T18:00:58;10.0;;;3.9;;
51515;SDS011;37603;55.614;37.326;2023-04-25T18:06:57;8.2;;;3.7;;
51515;SDS011;37603;55.614;37.326;2023-04-25T18:18:56;8.4;;;4.5;;
51515;SDS011;37603;55.614;37.326;2023-04-25T18:24:56;7.2;;;4.4;;
51515;SDS011;37603;55.614;37.326;2023-04-25T18:30:55;8.9;;;4.5;;
51515;SDS011;37603;55.614;37.326;2023-04-25T18:36:55;7.4;;;4.3;;
51515;SDS011;37603;55.614;37.326;2023-04-25T18:48:54;11.6;;;5.2;;
51515;SDS011;37603;55.614;37.326;2023-04-25T18:54:53;8.2;;;5.1;;
51515;SDS011;37603;55.614;37.326;2023-04-25T19:00:53;7.5;;;4.9;;
51515;SDS011;37603;55.614;37.326;2023-04-25T19:06:52;7.4;;;5.2;;
51515;SDS011;37603;55.614;37.326;2023-04-25T19:12:52;8.8;;;5.9;;
51515;SDS011;37603;55.614;37.326;2023-04-25T19:18:52;10.1;;;6.4;;
51515;SDS011;37603;55.614;37.326;2023-04-25T19:24:51;9.3;;;6.2;;
51515;SDS011;37603;55.614;37.326;2023-04-25T19:30:50;10.6;;;7.0;;
51515;SDS011;37603;55.614;37.326;2023-04-25T19:36:50;10.9;;;7.0;;
51515;SDS011;37603;55.614;37.326;2023-04-25T19:42:49;9.7;;;7.2;;
51515;SDS011;37603;55.614;37.326;2023-04-25T19:48:49;9.3;;;7.6;;
51515;SDS011;37603;55.614;37.326;2023-04-25T19:54:48;14.3;;;8.8;;
51515;SDS011;37603;55.614;37.326;2023-04-25T20:00:47;12.0;;;9.4;;
51515;SDS011;37603;55.614;37.326;2023-04-25T20:06:47;12.6;;;10.0;;
51515;SDS011;37603;55.614;37.326;2023-04-25T20:12:46;14.5;;;10.6;;
51515;SDS011;37603;55.614;37.326;2023-04-25T20:18:46;12.9;;;10.1;;
51515;SDS011;37603;55.614;37.326;2023-04-25T20:24:45;14.7;;;10.0;;
51515;SDS011;37603;55.614;37.326;2023-04-25T20:30:45;15.7;;;10.8;;
51515;SDS011;37603;55.614;37.326;2023-04-25T20:36:44;17.4;;;12.0;;
51515;SDS011;37603;55.614;37.326;2023-04-25T20:42:43;15.6;;;11.7;;
51515;SDS011;37603;55.614;37.326;2023-04-25T20:48:43;16.3;;;11.5;;
51515;SDS011;37603;55.614;37.326;2023-04-25T20:54:42;18.7;;;13.0;;
51515;SDS011;37603;55.614;37.326;2023-04-25T21:00:42;15.6;;;11.0;;
51515;SDS011;37603;55.614;37.326;2023-04-25T21:06:41;16.0;;;11.6;;
51515;SDS011;37603;55.614;37.326;2023-04-25T21:18:40;13.8;;;11.2;;
51515;SDS011;37603;55.614;37.326;2023-04-25T21:24:39;15.6;;;12.3;;
51515;SDS011;37603;55.614;37.326;2023-04-25T21:30:39;15.1;;;11.2;;
51515;SDS011;37603;55.614;37.326;2023-04-25T21:36:38;17.5;;;13.2;;
51515;SDS011;37603;55.614;37.326;2023-04-25T21:42:37;21.0;;;16.3;;
51515;SDS011;37603;55.614;37.326;2023-04-25T21:48:37;22.3;;;19.1;;
51515;SDS011;37603;55.614;37.326;2023-04-25T21:54:36;23.8;;;18.8;;
51515;SDS011;37603;55.614;37.326;2023-04-25T22:00:35;26.5;;;23.6;;
51515;SDS011;37603;55.614;37.326;2023-04-25T22:06:35;28.8;;;22.9;;
51515;SDS011;37603;55.614;37.326;2023-04-25T22:12:34;29.3;;;23.4;;
51515;SDS011;37603;55.614;37.326;2023-04-25T22:18:33;16.2;;;12.4;;
51515;SDS011;37603;55.614;37.326;2023-04-25T22:24:33;17.1;;;11.9;;
51515;SDS011;37603;55.614;37.326;2023-04-25T22:30:32;17.8;;;13.4;;
51515;SDS011;37603;55.614;37.326;2023-04-25T22:36:31;17.7;;;13.5;;
51515;SDS011;37603;55.614;37.326;2023-04-25T22:42:35;16.7;;;11.7;;
51515;SDS011;37603;55.614;37.326;2023-04-25T22:48:30;10.2;;;7.7;;
51515;SDS011;37603;55.614;37.326;2023-04-25T22:54:30;9.3;;;5.9;;
51515;SDS011;37603;55.614;37.326;2023-04-25T23:00:29;8.5;;;5.7;;
51515;SDS011;37603;55.614;37.326;2023-04-25T23:06:28;7.3;;;3.8;;
51515;SDS011;37603;55.614;37.326;2023-04-25T23:12:28;5.3;;;4.2;;
51515;SDS011;37603;55.614;37.326;2023-04-25T23:18:27;5.9;;;4.2;;
51515;SDS011;37603;55.614;37.326;2023-04-25T23:24:26;6.1;;;4.2;;
51515;SDS011;37603;55.614;37.326;2023-04-25T23:30:26;5.5;;;4.3;;
51515;SDS011;37603;55.614;37.326;2023-04-25T23:36:25;5.6;;;4.1;;
51515;SDS011;37603;55.614;37.326;2023-04-25T23:42:25;5.1;;;4.2;;
51515;SDS011;37603;55.614;37.326;2023-04-25T23:48:24;6.4;;;4.5;;
51515;SDS011;37603;55.614;37.326;2023-04-25T23:54:23;6.8;;;5.4;;
